Time;durP1;ratioP1;P1;durP2;ratioP2;P2;SDS_P1;SDS_P2;PMS_P1;PMS_P2;Temp;Humidity;BMP_temperature;BMP_pressure;BME280_temperature;BME280_humidity;BME280_pressure;Samples;Min_cycle;Max_cycle;Signal;HPM_P1;HPM_P2
2024/01/30 00:00:39;;;;;;;12.02;5.25;;;;;;;;;;5056362;28;20398;-69
2024/01/30 00:03:04;;;;;;;13.18;5.68;;;;;;;;;;5060821;28;20137;-69
2024/01/30 00:05:30;;;;;;;14.35;6.60;;;;;;;;;;5056978;28;20036;-69
2024/01/30 00:07:55;;;;;;;10.30;5.85;;;;;;;;;;5074936;28;20024;-69
2024/01/30 00:10:21;;;;;;;14.05;5.65;;;;;;;;;;5074874;28;20024;-69
2024/01/30 00:12:46;;;;;;;13.60;6.15;;;;;;;;;;5074660;28;20042;-69
2024/01/30 00:15:11;;;;;;;11.77;5.78;;;;;;;;;;5074475;28;20032;-69
2024/01/30 00:17:37;;;;;;;12.10;6.18;;;;;;;;;;5056829;28;20024;-69
2024/01/30 00:20:07;;;;;;;10.93;4.93;;;;;;;;;;5074608;28;20439;-69
2024/01/30 00:22:32;;;;;;;14.13;6.13;;;;;;;;;;5074624;28;20028;-69
2024/01/30 00:24:58;;;;;;;12.00;5.60;;;;;;;;;;5074107;28;20426;-69
2024/01/30 00:27:23;;;;;;;14.52;5.90;;;;;;;;;;5074326;28;20024;-69
2024/01/30 00:29:49;;;;;;;11.30;5.95;;;;;;;;;;5074558;28;20036;-69
2024/01/30 00:32:14;;;;;;;18.48;6.10;;;;;;;;;;5074350;28;20032;-69
2024/01/30 00:34:41;;;;;;;13.10;6.18;;;;;;;;;;5074376;28;20126;-70
2024/01/30 00:37:07;;;;;;;11.88;5.90;;;;;;;;;;5074277;28;20460;-69
2024/01/30 00:39:32;;;;;;;14.07;6.03;;;;;;;;;;5076667;28;20043;-67
2024/01/30 00:41:58;;;;;;;12.73;5.60;;;;;;;;;;5094125;28;20469;-69
2024/01/30 00:44:23;;;;;;;10.73;5.53;;;;;;;;;;5094337;28;20032;-69
2024/01/30 00:46:49;;;;;;;12.82;5.35;;;;;;;;;;5077447;28;20103;-67
2024/01/30 00:49:14;;;;;;;14.23;5.78;;;;;;;;;;5073877;28;20056;-68
2024/01/30 00:51:40;;;;;;;15.45;5.53;;;;;;;;;;5074127;28;20154;-67
2024/01/30 00:54:06;;;;;;;14.40;6.10;;;;;;;;;;5073621;28;20052;-67
2024/01/30 00:56:31;;;;;;;10.48;5.03;;;;;;;;;;5073727;28;20056;-69
2024/01/30 00:58:57;;;;;;;12.30;5.07;;;;;;;;;;5069600;28;20468;-70
2024/01/30 01:01:22;;;;;;;12.18;5.07;;;;;;;;;;5053883;28;20033;-68
2024/01/30 01:03:48;;;;;;;12.60;5.50;;;;;;;;;;5065720;28;20055;-67
2024/01/30 01:06:14;;;;;;;8.85;5.13;;;;;;;;;;5073720;28;20510;-69
2024/01/30 01:08:39;;;;;;;15.02;5.72;;;;;;;;;;5073670;28;20086;-69
2024/01/30 01:11:05;;;;;;;9.65;5.70;;;;;;;;;;5073372;28;20024;-69
2024/01/30 01:13:30;;;;;;;13.98;6.00;;;;;;;;;;5073437;28;20536;-68
2024/01/30 01:15:56;;;;;;;11.07;5.35;;;;;;;;;;5073416;28;20040;-67
2024/01/30 01:18:21;;;;;;;12.52;5.60;;;;;;;;;;5073811;28;20112;-67
2024/01/30 01:20:47;;;;;;;13.77;5.95;;;;;;;;;;5073314;28;20104;-67
2024/01/30 01:23:12;;;;;;;11.25;5.05;;;;;;;;;;5073244;28;20160;-67
2024/01/30 01:25:37;;;;;;;12.95;5.50;;;;;;;;;;5073023;28;20052;-67
2024/01/30 01:28:03;;;;;;;10.55;5.75;;;;;;;;;;5073308;28;20035;-67
2024/01/30 01:30:30;;;;;;;13.73;5.75;;;;;;;;;;5073212;28;20024;-67
2024/01/30 01:32:56;;;;;;;11.95;5.43;;;;;;;;;;5073098;28;20058;-67
2024/01/30 01:35:25;;;;;;;12.20;6.13;;;;;;;;;;5073000;28;20032;-68
2024/01/30 01:37:59;;;;;;;11.65;5.55;;;;;;;;;;5072405;28;20519;-67
2024/01/30 01:40:26;;;;;;;13.55;5.63;;;;;;;;;;5072923;28;20039;-67
2024/01/30 01:42:52;;;;;;;13.02;5.22;;;;;;;;;;5073038;28;20077;-67
2024/01/30 01:45:19;;;;;;;11.00;5.30;;;;;;;;;;5072642;28;20028;-67
2024/01/30 01:47:47;;;;;;;14.13;5.22;;;;;;;;;;5054779;28;20086;-67
2024/01/30 01:50:19;;;;;;;13.52;5.43;;;;;;;;;;5072850;28;20103;-68
2024/01/30 01:52:47;;;;;;;13.48;5.75;;;;;;;;;;5072745;28;20035;-67
2024/01/30 01:55:14;;;;;;;12.93;5.05;;;;;;;;;;5072248;28;20044;-67
2024/01/30 01:57:40;;;;;;;11.07;5.68;;;;;;;;;;5072779;28;20357;-67
2024/01/30 02:00:07;;;;;;;13.45;5.60;;;;;;;;;;5059019;28;20396;-67
2024/01/30 02:02:35;;;;;;;13.15;5.88;;;;;;;;;;5054053;28;20028;-67
2024/01/30 02:05:01;;;;;;;10.90;4.82;;;;;;;;;;5072397;28;20036;-67
2024/01/30 02:07:27;;;;;;;12.73;5.72;;;;;;;;;;5072646;28;20032;-67
2024/01/30 02:09:53;;;;;;;11.07;5.53;;;;;;;;;;5072307;28;20044;-67
2024/01/30 02:12:18;;;;;;;11.20;5.25;;;;;;;;;;5060816;28;20349;-68
2024/01/30 02:14:48;;;;;;;11.73;5.60;;;;;;;;;;5052640;28;20056;-68
2024/01/30 02:17:14;;;;;;;14.77;5.65;;;;;;;;;;5052584;28;20021;-68
2024/01/30 02:19:40;;;;;;;13.45;5.82;;;;;;;;;;5052572;28;20025;-68
2024/01/30 02:22:06;;;;;;;15.73;6.05;;;;;;;;;;5052378;28;20064;-68
2024/01/30 02:24:31;;;;;;;11.52;5.03;;;;;;;;;;5052195;28;20422;-68
2024/01/30 02:26:57;;;;;;;11.93;5.28;;;;;;;;;;5052324;28;20514;-68
2024/01/30 02:29:22;;;;;;;13.07;5.30;;;;;;;;;;5052283;28;20025;-68
2024/01/30 02:31:48;;;;;;;11.45;4.90;;;;;;;;;;5052186;28;20028;-68
2024/01/30 02:34:13;;;;;;;11.88;5.43;;;;;;;;;;5052404;28;20123;-68
2024/01/30 02:36:42;;;;;;;10.63;5.75;;;;;;;;;;5052295;28;20029;-68
2024/01/30 02:39:08;;;;;;;9.70;4.78;;;;;;;;;;5051929;28;20353;-68
2024/01/30 02:41:33;;;;;;;10.13;5.13;;;;;;;;;;5052215;28;20032;-68
2024/01/30 02:43:59;;;;;;;14.63;6.10;;;;;;;;;;5052169;28;20033;-68
2024/01/30 02:46:24;;;;;;;11.68;5.63;;;;;;;;;;5064946;28;20031;-68
2024/01/30 02:48:50;;;;;;;11.43;6.18;;;;;;;;;;5075079;28;20032;-68
2024/01/30 02:51:15;;;;;;;15.90;6.78;;;;;;;;;;5076143;28;20024;-68
2024/01/30 02:53:40;;;;;;;16.00;6.35;;;;;;;;;;5075758;28;20078;-68
2024/01/30 02:56:09;;;;;;;13.27;5.40;;;;;;;;;;5076306;28;20021;-68
2024/01/30 02:58:35;;;;;;;18.80;6.07;;;;;;;;;;5075205;28;20024;-68
2024/01/30 03:01:00;;;;;;;12.20;6.03;;;;;;;;;;5056006;28;20029;-68
2024/01/30 03:03:26;;;;;;;9.93;5.43;;;;;;;;;;5064819;28;20021;-68
2024/01/30 03:05:51;;;;;;;11.23;5.95;;;;;;;;;;5076091;28;20066;-68
2024/01/30 03:08:16;;;;;;;11.10;5.78;;;;;;;;;;5075787;28;20028;-68
2024/01/30 03:10:42;;;;;;;13.90;6.65;;;;;;;;;;5075801;28;20456;-68
2024/01/30 03:13:07;;;;;;;11.45;5.97;;;;;;;;;;5075662;28;20039;-68
2024/01/30 03:15:32;;;;;;;9.50;5.78;;;;;;;;;;5075760;28;20024;-68
2024/01/30 03:17:58;;;;;;;11.25;5.05;;;;;;;;;;5075846;28;20025;-68
2024/01/30 03:20:24;;;;;;;10.82;5.57;;;;;;;;;;5075730;28;20023;-68
2024/01/30 03:22:50;;;;;;;15.45;6.38;;;;;;;;;;5057384;28;20072;-68
2024/01/30 03:25:15;;;;;;;13.57;5.55;;;;;;;;;;5075511;28;20075;-68
2024/01/30 03:27:40;;;;;;;13.02;5.88;;;;;;;;;;5057755;28;20030;-68
2024/01/30 03:30:07;;;;;;;13.77;6.03;;;;;;;;;;5075487;28;20476;-68
2024/01/30 03:32:32;;;;;;;14.07;6.18;;;;;;;;;;5075415;28;20021;-68
2024/01/30 03:34:58;;;;;;;13.45;5.13;;;;;;;;;;5075458;28;20047;-68
2024/01/30 03:37:23;;;;;;;12.52;5.32;;;;;;;;;;5075291;28;20021;-68
2024/01/30 03:39:49;;;;;;;13.48;5.75;;;;;;;;;;5075260;28;20029;-68
2024/01/30 03:42:14;;;;;;;13.57;5.93;;;;;;;;;;5075356;28;20498;-68
2024/01/30 03:44:40;;;;;;;12.55;5.57;;;;;;;;;;5075155;28;20024;-68
2024/01/30 03:47:05;;;;;;;11.80;6.13;;;;;;;;;;5074955;28;20112;-68
2024/01/30 03:49:31;;;;;;;13.00;6.82;;;;;;;;;;5075053;28;20032;-68
2024/01/30 03:51:56;;;;;;;12.93;6.55;;;;;;;;;;5074842;28;20430;-68
2024/01/30 03:54:21;;;;;;;10.68;5.53;;;;;;;;;;5074810;28;20062;-68
2024/01/30 03:56:47;;;;;;;10.88;5.78;;;;;;;;;;5074987;28;20029;-68
2024/01/30 03:59:12;;;;;;;13.43;5.93;;;;;;;;;;5068027;28;20100;-68
2024/01/30 04:01:38;;;;;;;13.07;6.63;;;;;;;;;;5054951;28;20024;-69
2024/01/30 04:04:03;;;;;;;14.27;5.35;;;;;;;;;;5068896;28;20028;-68
2024/01/30 04:06:29;;;;;;;13.32;5.20;;;;;;;;;;5074788;28;20086;-68
2024/01/30 04:08:54;;;;;;;14.93;6.28;;;;;;;;;;5074882;28;20033;-68
2024/01/30 04:11:20;;;;;;;9.75;5.07;;;;;;;;;;5074614;28;20028;-69
2024/01/30 04:13:47;;;;;;;11.50;5.85;;;;;;;;;;5074765;28;20028;-68
2024/01/30 04:16:22;;;;;;;14.25;5.97;;;;;;;;;;5074795;28;20442;-68
2024/01/30 04:18:48;;;;;;;13.65;6.57;;;;;;;;;;5074732;28;20042;-68
2024/01/30 04:21:13;;;;;;;15.63;7.22;;;;;;;;;;5074263;28;20146;-68
2024/01/30 04:23:40;;;;;;;12.93;5.40;;;;;;;;;;5074905;28;20024;-68
2024/01/30 04:26:05;;;;;;;13.45;6.57;;;;;;;;;;5074626;28;20118;-68
2024/01/30 04:28:31;;;;;;;11.40;6.38;;;;;;;;;;5074611;28;20032;-68
2024/01/30 04:30:57;;;;;;;12.35;6.30;;;;;;;;;;5074410;28;20149;-68
2024/01/30 04:33:22;;;;;;;10.13;5.63;;;;;;;;;;5074190;28;20107;-68
2024/01/30 04:35:47;;;;;;;16.88;6.03;;;;;;;;;;5074166;28;20020;-68
2024/01/30 04:38:14;;;;;;;10.35;5.72;;;;;;;;;;5074313;28;20546;-68
2024/01/30 04:40:40;;;;;;;15.63;5.63;;;;;;;;;;5074128;28;20171;-69
2024/01/30 04:43:05;;;;;;;16.33;6.10;;;;;;;;;;5074327;28;20028;-68
2024/01/30 04:45:31;;;;;;;13.32;6.15;;;;;;;;;;5073984;28;20024;-68
2024/01/30 04:47:56;;;;;;;10.52;5.68;;;;;;;;;;5073982;28;20505;-68
2024/01/30 04:50:22;;;;;;;14.80;5.40;;;;;;;;;;5073708;28;20036;-68
2024/01/30 04:52:48;;;;;;;11.80;5.65;;;;;;;;;;5074146;28;20036;-68
2024/01/30 04:55:13;;;;;;;15.35;5.65;;;;;;;;;;5073496;28;20051;-68
2024/01/30 04:57:38;;;;;;;16.02;6.10;;;;;;;;;;5073926;28;20028;-68
2024/01/30 05:00:05;;;;;;;15.15;5.70;;;;;;;;;;5060456;28;20033;-68
2024/01/30 05:02:30;;;;;;;15.80;5.75;;;;;;;;;;5055012;28;20033;-68
2024/01/30 05:04:56;;;;;;;12.50;6.13;;;;;;;;;;5073638;28;20024;-68
2024/01/30 05:07:21;;;;;;;13.80;5.72;;;;;;;;;;5073696;28;20047;-68
2024/01/30 05:09:47;;;;;;;12.57;5.47;;;;;;;;;;5055630;28;20025;-68
2024/01/30 05:12:13;;;;;;;14.50;6.20;;;;;;;;;;5072485;28;20109;-68
2024/01/30 05:14:38;;;;;;;14.90;6.00;;;;;;;;;;5073546;28;20025;-68
2024/01/30 05:17:04;;;;;;;13.63;6.18;;;;;;;;;;5073514;28;20036;-68
2024/01/30 05:19:29;;;;;;;13.82;5.80;;;;;;;;;;5073234;28;20032;-68
2024/01/30 05:21:54;;;;;;;11.00;5.55;;;;;;;;;;5073257;28;20096;-68
2024/01/30 05:24:20;;;;;;;11.43;5.82;;;;;;;;;;5055457;28;20531;-68
2024/01/30 05:26:47;;;;;;;13.50;5.80;;;;;;;;;;5073103;28;20104;-68
2024/01/30 05:29:12;;;;;;;13.00;5.63;;;;;;;;;;5073183;28;20025;-71
2024/01/30 05:31:38;;;;;;;12.13;5.82;;;;;;;;;;5073086;28;20169;-69
2024/01/30 05:34:03;;;;;;;11.52;5.63;;;;;;;;;;5072807;28;20035;-68
2024/01/30 05:36:28;;;;;;;11.00;6.32;;;;;;;;;;5073182;28;20027;-68
2024/01/30 05:38:54;;;;;;;13.20;6.40;;;;;;;;;;5072917;28;20013;-68
2024/01/30 05:41:21;;;;;;;13.70;6.78;;;;;;;;;;5072757;28;20438;-68
2024/01/30 05:43:46;;;;;;;14.82;6.07;;;;;;;;;;5073062;28;20056;-68
2024/01/30 05:46:11;;;;;;;13.80;6.72;;;;;;;;;;5072740;28;20419;-68
2024/01/30 05:48:37;;;;;;;14.43;6.22;;;;;;;;;;5072774;28;20028;-68
2024/01/30 05:51:03;;;;;;;19.10;6.50;;;;;;;;;;5072826;28;20042;-68
2024/01/30 05:53:29;;;;;;;18.73;6.90;;;;;;;;;;5072412;28;20039;-68
2024/01/30 05:55:54;;;;;;;11.43;5.75;;;;;;;;;;5088228;28;20045;-68
2024/01/30 05:58:21;;;;;;;10.55;5.53;;;;;;;;;;5072728;28;20024;-68
2024/01/30 06:00:46;;;;;;;11.38;5.82;;;;;;;;;;5053457;28;20032;-68
2024/01/30 06:03:12;;;;;;;15.02;6.32;;;;;;;;;;5041364;28;20025;-68
2024/01/30 06:05:37;;;;;;;14.50;6.25;;;;;;;;;;5072520;28;20020;-68
2024/01/30 06:08:03;;;;;;;15.32;6.88;;;;;;;;;;5072629;28;20035;-68
2024/01/30 06:10:28;;;;;;;15.18;7.68;;;;;;;;;;5072446;28;20036;-68
2024/01/30 06:12:54;;;;;;;10.30;6.07;;;;;;;;;;5072306;28;20025;-68
2024/01/30 06:15:19;;;;;;;17.70;6.05;;;;;;;;;;5072157;28;20395;-68
2024/01/30 06:17:45;;;;;;;14.90;7.57;;;;;;;;;;5072357;28;20464;-68
2024/01/30 06:20:10;;;;;;;10.95;6.20;;;;;;;;;;5072295;28;20032;-68
2024/01/30 06:22:36;;;;;;;14.00;5.93;;;;;;;;;;5072068;28;20179;-69
2024/01/30 06:25:01;;;;;;;13.68;6.65;;;;;;;;;;5072332;28;20046;-68
2024/01/30 06:27:27;;;;;;;15.05;7.30;;;;;;;;;;5072284;28;20028;-68
2024/01/30 06:29:52;;;;;;;19.40;9.77;;;;;;;;;;5072007;28;20021;-68
2024/01/30 06:32:17;;;;;;;25.27;10.60;;;;;;;;;;5072421;28;20360;-68
2024/01/30 06:34:44;;;;;;;21.35;10.05;;;;;;;;;;5054143;28;20529;-68
2024/01/30 06:37:09;;;;;;;19.10;9.13;;;;;;;;;;5072064;28;20024;-68
2024/01/30 06:39:35;;;;;;;19.33;9.85;;;;;;;;;;5072037;28;20158;-68
2024/01/30 06:42:00;;;;;;;19.63;9.40;;;;;;;;;;5072277;28;20425;-68
2024/01/30 06:44:26;;;;;;;22.77;10.13;;;;;;;;;;5071945;28;20464;-68
2024/01/30 06:46:51;;;;;;;17.65;9.45;;;;;;;;;;5071844;28;20028;-68
2024/01/30 06:49:17;;;;;;;17.70;7.88;;;;;;;;;;5071840;28;20029;-68
2024/01/30 06:51:42;;;;;;;17.05;9.18;;;;;;;;;;5072115;28;20021;-68
2024/01/30 06:54:08;;;;;;;18.42;8.40;;;;;;;;;;5071784;28;20123;-68
2024/01/30 06:56:35;;;;;;;23.20;11.23;;;;;;;;;;5071995;28;20051;-68
2024/01/30 06:59:01;;;;;;;21.83;9.20;;;;;;;;;;5067137;28;20029;-68
2024/01/30 07:01:29;;;;;;;25.33;11.00;;;;;;;;;;5051926;28;20078;-68
2024/01/30 07:03:55;;;;;;;29.17;10.18;;;;;;;;;;5064706;28;20142;-68
2024/01/30 07:06:22;;;;;;;22.90;9.00;;;;;;;;;;5071918;28;20066;-68
2024/01/30 07:08:47;;;;;;;28.90;10.05;;;;;;;;;;5071621;28;20032;-68
2024/01/30 07:11:22;;;;;;;31.38;9.82;;;;;;;;;;5071794;28;20028;-68
2024/01/30 07:13:48;;;;;;;20.38;9.10;;;;;;;;;;5071627;28;20089;-68
2024/01/30 07:16:14;;;;;;;26.00;9.32;;;;;;;;;;5053896;28;20379;-68
2024/01/30 07:18:39;;;;;;;24.13;10.13;;;;;;;;;;5071929;28;20020;-68
2024/01/30 07:21:05;;;;;;;24.42;10.02;;;;;;;;;;5071577;28;20043;-68
2024/01/30 07:23:30;;;;;;;27.75;10.60;;;;;;;;;;5071822;28;20028;-69
2024/01/30 07:25:55;;;;;;;18.42;7.70;;;;;;;;;;5071811;28;20333;-69
2024/01/30 07:28:21;;;;;;;20.02;8.85;;;;;;;;;;5071712;28;20025;-69
2024/01/30 07:30:48;;;;;;;19.55;7.97;;;;;;;;;;5071737;28;20024;-69
2024/01/30 07:33:13;;;;;;;17.83;9.07;;;;;;;;;;5071365;28;20375;-69
2024/01/30 07:35:39;;;;;;;17.30;7.93;;;;;;;;;;5073938;28;20085;-69
2024/01/30 07:38:04;;;;;;;17.45;8.38;;;;;;;;;;5075452;28;20028;-69
2024/01/30 07:40:30;;;;;;;17.67;8.65;;;;;;;;;;5075417;28;20032;-69
2024/01/30 07:42:55;;;;;;;15.35;8.55;;;;;;;;;;5075132;28;20036;-69
2024/01/30 07:45:24;;;;;;;15.13;7.90;;;;;;;;;;5074932;28;20506;-69
2024/01/30 07:47:50;;;;;;;18.67;8.10;;;;;;;;;;5074929;28;20069;-69
2024/01/30 07:50:15;;;;;;;15.70;7.75;;;;;;;;;;5074959;28;20024;-69
2024/01/30 07:52:42;;;;;;;19.00;8.10;;;;;;;;;;5073456;28;20064;-70
2024/01/30 07:55:08;;;;;;;15.23;8.55;;;;;;;;;;5074227;28;20561;-69
2024/01/30 07:57:34;;;;;;;12.32;6.03;;;;;;;;;;5074558;28;20094;-69
2024/01/30 07:59:59;;;;;;;17.17;7.35;;;;;;;;;;5074789;28;20025;-69
2024/01/30 08:02:25;;;;;;;12.82;6.80;;;;;;;;;;5074567;28;20029;-69
2024/01/30 08:04:50;;;;;;;18.83;7.20;;;;;;;;;;5074453;28;20032;-69
2024/01/30 08:07:17;;;;;;;15.27;6.90;;;;;;;;;;5074706;28;20032;-69
2024/01/30 08:09:43;;;;;;;11.07;5.93;;;;;;;;;;5067771;28;20025;-69
2024/01/30 08:12:08;;;;;;;16.85;7.50;;;;;;;;;;5074577;28;20031;-69
2024/01/30 08:14:34;;;;;;;19.00;7.45;;;;;;;;;;5074570;28;20088;-69
2024/01/30 08:16:59;;;;;;;13.65;6.68;;;;;;;;;;5074698;28;20432;-69
2024/01/30 08:19:24;;;;;;;14.50;7.13;;;;;;;;;;5074511;28;20021;-69
2024/01/30 08:21:50;;;;;;;14.52;7.13;;;;;;;;;;5074486;28;20020;-69
2024/01/30 08:24:15;;;;;;;24.00;11.35;;;;;;;;;;5074574;28;20453;-69
2024/01/30 08:26:41;;;;;;;18.30;8.00;;;;;;;;;;5074165;28;20070;-69
2024/01/30 08:29:06;;;;;;;13.02;6.78;;;;;;;;;;5073849;28;20043;-69
2024/01/30 08:31:32;;;;;;;16.35;7.40;;;;;;;;;;5074254;28;20074;-69
2024/01/30 08:33:57;;;;;;;14.57;7.10;;;;;;;;;;5074128;28;20105;-69
2024/01/30 08:36:24;;;;;;;15.05;7.35;;;;;;;;;;5074377;28;20030;-69
2024/01/30 08:38:49;;;;;;;14.70;7.50;;;;;;;;;;5056361;28;20020;-69
2024/01/30 08:41:14;;;;;;;14.18;7.60;;;;;;;;;;5073960;28;20028;-69
2024/01/30 08:43:40;;;;;;;14.80;7.70;;;;;;;;;;5072895;28;20045;-69
2024/01/30 08:46:05;;;;;;;18.38;8.15;;;;;;;;;;5073382;28;20395;-69
2024/01/30 08:48:31;;;;;;;16.17;7.57;;;;;;;;;;5073798;28;20024;-68
2024/01/30 08:50:57;;;;;;;13.77;7.28;;;;;;;;;;5073853;28;20051;-68
2024/01/30 08:53:22;;;;;;;15.90;7.07;;;;;;;;;;5073678;28;20021;-68
2024/01/30 08:55:48;;;;;;;14.35;7.82;;;;;;;;;;5073425;28;20044;-69
2024/01/30 08:58:13;;;;;;;15.75;7.72;;;;;;;;;;5073900;28;20044;-68
2024/01/30 09:00:38;;;;;;;19.83;8.07;;;;;;;;;;5066062;28;20032;-68
2024/01/30 09:03:04;;;;;;;12.27;7.18;;;;;;;;;;5055569;28;20107;-68
2024/01/30 09:05:30;;;;;;;14.05;7.65;;;;;;;;;;5073534;28;20181;-68
2024/01/30 09:07:55;;;;;;;13.52;7.32;;;;;;;;;;5073621;28;20043;-68
2024/01/30 09:10:21;;;;;;;14.43;8.23;;;;;;;;;;5073272;28;20016;-68
2024/01/30 09:12:47;;;;;;;14.73;7.70;;;;;;;;;;5073364;28;20336;-68
2024/01/30 09:15:12;;;;;;;15.40;8.32;;;;;;;;;;5073343;28;20384;-68
2024/01/30 09:17:38;;;;;;;22.77;8.55;;;;;;;;;;5073429;28;20020;-69
2024/01/30 09:20:04;;;;;;;15.48;8.13;;;;;;;;;;5073455;28;20382;-68
2024/01/30 09:22:30;;;;;;;17.02;8.93;;;;;;;;;;5073340;28;20028;-69
2024/01/30 09:24:55;;;;;;;19.25;8.40;;;;;;;;;;5073142;28;20115;-68
2024/01/30 09:27:20;;;;;;;17.50;8.02;;;;;;;;;;5073061;28;20025;-68
2024/01/30 09:29:46;;;;;;;18.83;9.07;;;;;;;;;;5073339;28;20035;-68
2024/01/30 09:32:11;;;;;;;14.93;7.43;;;;;;;;;;5073180;28;20021;-69
2024/01/30 09:34:37;;;;;;;16.88;7.55;;;;;;;;;;5073205;28;20020;-68
2024/01/30 09:37:02;;;;;;;15.55;7.20;;;;;;;;;;5072868;28;20024;-69
2024/01/30 09:39:28;;;;;;;17.90;9.32;;;;;;;;;;5054684;28;20029;-69
2024/01/30 09:42:09;;;;;;;17.55;8.82;;;;;;;;;;5073084;28;20086;-69
2024/01/30 09:44:36;;;;;;;23.65;10.23;;;;;;;;;;5072920;28;20112;-68
2024/01/30 09:47:05;;;;;;;25.05;10.77;;;;;;;;;;5072592;28;20024;-69
2024/01/30 09:49:35;;;;;;;29.95;11.82;;;;;;;;;;5072593;28;20046;-68
2024/01/30 09:52:01;;;;;;;27.92;12.63;;;;;;;;;;5072897;28;20020;-68
2024/01/30 09:54:30;;;;;;;30.20;12.65;;;;;;;;;;5072268;28;20043;-68
2024/01/30 09:56:55;;;;;;;39.35;14.13;;;;;;;;;;5072533;28;20040;-68
2024/01/30 09:59:20;;;;;;;32.08;13.32;;;;;;;;;;5064960;28;20364;-68
2024/01/30 10:01:46;;;;;;;40.92;15.25;;;;;;;;;;5052719;28;20029;-68
2024/01/30 10:04:11;;;;;;;36.72;14.75;;;;;;;;;;5067422;28;20430;-69
2024/01/30 10:06:37;;;;;;;41.47;15.65;;;;;;;;;;5072516;28;20116;-68
2024/01/30 10:09:02;;;;;;;39.08;15.45;;;;;;;;;;5072410;28;20443;-68
2024/01/30 10:11:28;;;;;;;29.40;11.77;;;;;;;;;;5072416;28;20028;-68
2024/01/30 10:13:54;;;;;;;33.45;13.55;;;;;;;;;;5072621;28;20421;-68
2024/01/30 10:16:19;;;;;;;32.72;13.48;;;;;;;;;;5072592;28;20052;-68
2024/01/30 10:18:44;;;;;;;26.38;10.50;;;;;;;;;;5072568;28;20024;-68
2024/01/30 10:21:10;;;;;;;20.27;9.60;;;;;;;;;;5072279;28;20032;-68
2024/01/30 10:23:36;;;;;;;27.80;11.18;;;;;;;;;;5072211;28;20032;-68
2024/01/30 10:26:05;;;;;;;24.20;10.77;;;;;;;;;;5072367;28;20118;-68
2024/01/30 10:28:30;;;;;;;21.92;10.73;;;;;;;;;;5072366;28;20209;-69
2024/01/30 10:31:05;;;;;;;23.63;10.10;;;;;;;;;;5072283;28;20352;-68
2024/01/30 10:33:31;;;;;;;20.67;8.32;;;;;;;;;;5072122;28;20391;-68
2024/01/30 10:36:05;;;;;;;15.48;8.75;;;;;;;;;;5072226;28;20024;-68
2024/01/30 10:38:32;;;;;;;19.33;9.43;;;;;;;;;;5072042;28;20044;-68
2024/01/30 10:41:02;;;;;;;20.38;9.10;;;;;;;;;;5072221;28;20028;-68
2024/01/30 10:43:35;;;;;;;16.17;9.07;;;;;;;;;;5072168;28;20032;-70
2024/01/30 10:46:18;;;;;;;15.15;6.50;;;;;;;;;;5071870;28;20327;-68
2024/01/30 10:48:50;;;;;;;17.08;9.15;;;;;;;;;;5071841;28;20028;-68
2024/01/30 10:51:16;;;;;;;16.80;8.25;;;;;;;;;;5071601;28;20020;-68
2024/01/30 10:53:46;;;;;;;22.10;9.88;;;;;;;;;;5053653;28;20445;-68
2024/01/30 10:56:13;;;;;;;16.30;9.35;;;;;;;;;;5072106;28;20085;-68
2024/01/30 10:58:38;;;;;;;20.63;9.40;;;;;;;;;;5070585;28;20035;-69
2024/01/30 11:01:05;;;;;;;21.45;9.25;;;;;;;;;;5051957;28;20029;-68
2024/01/30 11:03:34;;;;;;;28.77;10.90;;;;;;;;;;5061051;28;20085;-68
2024/01/30 11:06:00;;;;;;;16.63;8.80;;;;;;;;;;5071464;28;20028;-68
2024/01/30 11:08:28;;;;;;;18.77;10.25;;;;;;;;;;5071926;28;20036;-68
2024/01/30 11:10:58;;;;;;;21.08;10.65;;;;;;;;;;5074662;28;20487;-68
2024/01/30 11:13:28;;;;;;;29.52;9.80;;;;;;;;;;5075583;28;20086;-68
2024/01/30 11:15:54;;;;;;;17.27;8.85;;;;;;;;;;5057834;28;20115;-68
2024/01/30 11:18:24;;;;;;;22.02;9.18;;;;;;;;;;5075798;28;20579;-69
2024/01/30 11:20:49;;;;;;;17.77;8.43;;;;;;;;;;5057538;28;20131;-68
2024/01/30 11:23:15;;;;;;;17.20;7.82;;;;;;;;;;5075617;28;20111;-68
2024/01/30 11:25:43;;;;;;;24.17;8.50;;;;;;;;;;5075588;28;20020;-68
2024/01/30 11:28:15;;;;;;;17.65;7.20;;;;;;;;;;5075636;28;20437;-68
2024/01/30 11:30:40;;;;;;;17.25;7.50;;;;;;;;;;5075566;28;20443;-68
2024/01/30 11:33:13;;;;;;;15.80;8.05;;;;;;;;;;5075399;28;20115;-68
2024/01/30 11:35:41;;;;;;;16.50;8.25;;;;;;;;;;5075264;28;20056;-68
2024/01/30 11:38:08;;;;;;;17.45;7.50;;;;;;;;;;5075448;28;20103;-68
2024/01/30 11:40:34;;;;;;;19.05;8.13;;;;;;;;;;5075395;28;20031;-68
2024/01/30 11:43:01;;;;;;;16.92;8.18;;;;;;;;;;5075412;28;20021;-68
2024/01/30 11:45:30;;;;;;;14.32;6.90;;;;;;;;;;5074917;28;20108;-69
2024/01/30 11:47:57;;;;;;;13.82;7.00;;;;;;;;;;5075191;28;20024;-67
2024/01/30 11:50:23;;;;;;;12.18;6.65;;;;;;;;;;5065136;28;20111;-69
2024/01/30 11:52:48;;;;;;;13.73;7.50;;;;;;;;;;5082401;28;20075;-67
2024/01/30 11:55:15;;;;;;;20.60;7.47;;;;;;;;;;5074776;28;20068;-67
2024/01/30 11:57:40;;;;;;;13.02;7.15;;;;;;;;;;5075169;28;20103;-67
2024/01/30 12:00:13;;;;;;;13.07;6.95;;;;;;;;;;5067896;28;20052;-68
2024/01/30 12:02:40;;;;;;;15.38;6.60;;;;;;;;;;5074952;28;20028;-69
2024/01/30 12:05:06;;;;;;;20.48;8.30;;;;;;;;;;5074788;28;20463;-68
2024/01/30 12:07:32;;;;;;;13.60;7.65;;;;;;;;;;5074907;28;20536;-68
2024/01/30 12:09:58;;;;;;;17.27;8.20;;;;;;;;;;5074763;28;20028;-68
2024/01/30 12:12:28;;;;;;;18.17;7.80;;;;;;;;;;5074942;28;20021;-68
2024/01/30 12:14:53;;;;;;;18.17;8.13;;;;;;;;;;5074786;28;20032;-68
2024/01/30 12:17:31;;;;;;;21.90;7.97;;;;;;;;;;5074473;28;20313;-68
2024/01/30 12:20:08;;;;;;;13.52;8.05;;;;;;;;;;5074156;28;20025;-68
2024/01/30 12:22:38;;;;;;;15.30;6.85;;;;;;;;;;5056399;28;20162;-67
2024/01/30 12:25:05;;;;;;;18.02;7.18;;;;;;;;;;5074448;28;20101;-68
2024/01/30 12:27:31;;;;;;;17.52;7.75;;;;;;;;;;5074460;28;20029;-68
2024/01/30 12:29:58;;;;;;;12.02;5.70;;;;;;;;;;5074459;28;20495;-68
2024/01/30 12:32:23;;;;;;;16.55;7.88;;;;;;;;;;5074344;28;20028;-68
2024/01/30 12:34:49;;;;;;;15.10;7.53;;;;;;;;;;5074093;28;20116;-68
2024/01/30 12:37:19;;;;;;;14.40;7.60;;;;;;;;;;5074319;28;20027;-68
2024/01/30 12:39:45;;;;;;;13.23;6.60;;;;;;;;;;5074280;28;20033;-68
2024/01/30 12:42:10;;;;;;;19.58;7.18;;;;;;;;;;5074339;28;20028;-68
2024/01/30 12:44:36;;;;;;;13.98;6.95;;;;;;;;;;5074259;28;20394;-68
2024/01/30 12:47:05;;;;;;;13.40;7.10;;;;;;;;;;5073432;28;20451;-68
2024/01/30 12:49:30;;;;;;;14.70;6.55;;;;;;;;;;5073497;28;20411;-69
2024/01/30 12:51:56;;;;;;;20.55;7.43;;;;;;;;;;5073810;28;20024;-68
2024/01/30 12:54:23;;;;;;;15.45;7.20;;;;;;;;;;5073583;28;20037;-69
2024/01/30 12:56:48;;;;;;;18.95;6.97;;;;;;;;;;5074066;28;20111;-68
2024/01/30 12:59:13;;;;;;;18.15;7.75;;;;;;;;;;5067545;28;20084;-68
2024/01/30 13:01:39;;;;;;;19.58;7.30;;;;;;;;;;5035714;28;20116;-68
2024/01/30 13:04:04;;;;;;;13.02;6.57;;;;;;;;;;5067836;28;20039;-69
2024/01/30 13:06:30;;;;;;;12.13;6.80;;;;;;;;;;5073678;28;20020;-68
2024/01/30 13:08:55;;;;;;;16.05;6.72;;;;;;;;;;5073475;28;20032;-68
2024/01/30 13:11:21;;;;;;;13.10;6.38;;;;;;;;;;5073528;28;20031;-68
2024/01/30 13:13:47;;;;;;;16.90;7.05;;;;;;;;;;5073615;28;20036;-68
2024/01/30 13:16:12;;;;;;;20.95;7.13;;;;;;;;;;5073469;28;20397;-68
2024/01/30 13:18:37;;;;;;;14.02;6.50;;;;;;;;;;5073636;28;20021;-68
2024/01/30 13:21:03;;;;;;;13.02;5.97;;;;;;;;;;5073483;28;20103;-68
2024/01/30 13:23:28;;;;;;;11.77;6.40;;;;;;;;;;5072994;28;20420;-67
2024/01/30 13:25:57;;;;;;;12.35;6.05;;;;;;;;;;5073340;28;20445;-67
2024/01/30 13:28:23;;;;;;;14.27;6.53;;;;;;;;;;5073374;28;20021;-68
2024/01/30 13:30:48;;;;;;;12.10;6.28;;;;;;;;;;5073049;28;20086;-68
2024/01/30 13:33:14;;;;;;;13.65;6.18;;;;;;;;;;5072073;28;20036;-68
2024/01/30 13:35:39;;;;;;;10.63;6.28;;;;;;;;;;5073143;28;20030;-68
2024/01/30 13:38:05;;;;;;;12.82;7.03;;;;;;;;;;5073162;28;20028;-68
2024/01/30 13:40:30;;;;;;;12.95;6.53;;;;;;;;;;5073160;28;20123;-68
2024/01/30 13:42:55;;;;;;;14.98;6.65;;;;;;;;;;5073066;28;20472;-67
2024/01/30 13:45:21;;;;;;;12.63;6.18;;;;;;;;;;5054526;28;20491;-68
2024/01/30 13:47:46;;;;;;;16.85;6.13;;;;;;;;;;5072875;28;20031;-68
2024/01/30 13:50:15;;;;;;;12.20;6.63;;;;;;;;;;5072923;28;20021;-68
2024/01/30 13:52:41;;;;;;;11.70;6.07;;;;;;;;;;5072678;28;20074;-68
2024/01/30 13:55:06;;;;;;;9.57;5.57;;;;;;;;;;5072331;28;20403;-68
2024/01/30 13:57:35;;;;;;;13.35;6.13;;;;;;;;;;5072538;28;20028;-68
2024/01/30 14:00:01;;;;;;;17.02;7.45;;;;;;;;;;5059435;28;20032;-68
2024/01/30 14:02:26;;;;;;;21.70;6.72;;;;;;;;;;5060933;28;20024;-68
2024/01/30 14:04:52;;;;;;;11.90;5.07;;;;;;;;;;5072535;28;20050;-68
2024/01/30 14:07:18;;;;;;;22.63;7.18;;;;;;;;;;5072514;28;20070;-68
2024/01/30 14:09:44;;;;;;;14.02;6.45;;;;;;;;;;5072541;28;20077;-68
2024/01/30 14:12:09;;;;;;;13.73;6.32;;;;;;;;;;5072631;28;20107;-68
2024/01/30 14:14:35;;;;;;;13.30;6.40;;;;;;;;;;5071991;28;20539;-68
2024/01/30 14:17:01;;;;;;;16.27;6.65;;;;;;;;;;5072526;28;20395;-68
2024/01/30 14:19:26;;;;;;;17.40;6.20;;;;;;;;;;5072201;28;20031;-68
2024/01/30 14:21:52;;;;;;;12.32;6.95;;;;;;;;;;5072382;28;20058;-68